Time;durP1;ratioP1;P1;durP2;ratioP2;P2;SDS_P1;SDS_P2;PMS_P1;PMS_P2;Temp;Humidity;BMP_temperature;BMP_pressure;BME280_temperature;BME280_humidity;BME280_pressure;Samples;Min_cycle;Max_cycle;Signal;HPM_P1;HPM_P2
2023/10/10 00:01:38;;;;;;;7.47;3.47;;;;;;;;;;6204253;28;20243;-66
2023/10/10 00:04:39;;;;;;;6.50;3.60;;;;;;;;;;6196774;28;20191;-66
2023/10/10 00:07:42;;;;;;;8.97;3.87;;;;;;;;;;6200932;28;20204;-66
2023/10/10 00:10:49;;;;;;;9.87;4.13;;;;;;;;;;6195794;28;20202;-66
2023/10/10 00:13:53;;;;;;;8.17;3.90;;;;;;;;;;6202432;28;20202;-66
2023/10/10 00:16:54;;;;;;;7.43;3.57;;;;;;;;;;6206555;28;20250;-66
2023/10/10 00:20:16;;;;;;;7.17;3.53;;;;;;;;;;6208150;28;20188;-66
2023/10/10 00:23:18;;;;;;;6.90;3.63;;;;;;;;;;6208642;28;20315;-66
2023/10/10 00:26:22;;;;;;;6.63;3.87;;;;;;;;;;6209857;28;20191;-66
2023/10/10 00:29:26;;;;;;;6.37;3.77;;;;;;;;;;6224537;28;20259;-66
2023/10/10 00:32:29;;;;;;;6.87;3.60;;;;;;;;;;6205192;28;20210;-66
2023/10/10 00:35:33;;;;;;;9.67;4.43;;;;;;;;;;6195603;28;20195;-66
2023/10/10 00:38:35;;;;;;;6.23;4.13;;;;;;;;;;6205035;28;20194;-66
2023/10/10 00:41:54;;;;;;;7.47;3.63;;;;;;;;;;6216585;28;20211;-66
2023/10/10 00:44:55;;;;;;;7.33;3.43;;;;;;;;;;6216824;28;20202;-66
2023/10/10 00:47:59;;;;;;;6.13;3.57;;;;;;;;;;6207227;28;20324;-66
2023/10/10 00:51:08;;;;;;;8.67;3.40;;;;;;;;;;6207407;28;20198;-66
2023/10/10 00:54:13;;;;;;;6.80;3.63;;;;;;;;;;6228617;28;20183;-66
2023/10/10 00:57:19;;;;;;;6.93;3.70;;;;;;;;;;6209563;28;20242;-66
2023/10/10 01:00:25;;;;;;;7.53;3.50;;;;;;;;;;6223177;28;20191;-66
2023/10/10 01:03:30;;;;;;;10.07;3.63;;;;;;;;;;6210305;28;20206;-66
2023/10/10 01:06:31;;;;;;;8.70;4.00;;;;;;;;;;6213034;28;20220;-66
2023/10/10 01:09:34;;;;;;;6.53;3.77;;;;;;;;;;6213051;28;20183;-66
2023/10/10 01:12:39;;;;;;;7.47;3.87;;;;;;;;;;6209393;28;20221;-66
2023/10/10 01:15:48;;;;;;;7.47;3.50;;;;;;;;;;6212323;28;20218;-66
2023/10/10 01:18:58;;;;;;;11.77;3.43;;;;;;;;;;6229917;28;20302;-66
2023/10/10 01:21:59;;;;;;;7.70;3.50;;;;;;;;;;6202453;28;20306;-66
2023/10/10 01:25:05;;;;;;;6.87;3.13;;;;;;;;;;6231263;28;20229;-66
2023/10/10 01:28:15;;;;;;;11.30;4.07;;;;;;;;;;6214638;28;20186;-66
2023/10/10 01:31:18;;;;;;;6.50;3.43;;;;;;;;;;6212006;28;20211;-66
2023/10/10 01:34:32;;;;;;;7.43;3.63;;;;;;;;;;6206651;28;20249;-66
2023/10/10 01:37:40;;;;;;;5.53;3.80;;;;;;;;;;6222195;28;20185;-66
2023/10/10 01:40:42;;;;;;;9.33;3.53;;;;;;;;;;6214212;28;20199;-66
2023/10/10 01:43:46;;;;;;;7.73;2.87;;;;;;;;;;6204299;28;20210;-66
2023/10/10 01:46:47;;;;;;;6.37;3.83;;;;;;;;;;6206774;28;20244;-66
2023/10/10 01:49:48;;;;;;;9.20;4.17;;;;;;;;;;6214564;28;20195;-66
2023/10/10 01:52:49;;;;;;;6.67;3.47;;;;;;;;;;6217826;28;20186;-66
2023/10/10 01:55:51;;;;;;;8.20;3.77;;;;;;;;;;6217229;28;20261;-66
2023/10/10 01:58:53;;;;;;;7.17;3.67;;;;;;;;;;6205358;28;20198;-66
2023/10/10 02:01:57;;;;;;;5.23;3.30;;;;;;;;;;6205250;28;20219;-66
2023/10/10 02:04:59;;;;;;;10.53;3.77;;;;;;;;;;6206357;28;20241;-66
2023/10/10 02:08:00;;;;;;;6.83;3.63;;;;;;;;;;6227191;28;20219;-66
2023/10/10 02:11:03;;;;;;;7.40;3.80;;;;;;;;;;6206601;28;20195;-66
2023/10/10 02:14:11;;;;;;;7.90;4.07;;;;;;;;;;6210624;28;20187;-66
2023/10/10 02:17:23;;;;;;;8.77;4.57;;;;;;;;;;6203681;28;20211;-66
2023/10/10 02:23:35;;;;;;;6.67;3.87;;;;;;;;;;6218623;28;20239;-66
2023/10/10 02:26:36;;;;;;;8.10;4.37;;;;;;;;;;6213025;28;20199;-66
2023/10/10 02:29:47;;;;;;;8.47;4.63;;;;;;;;;;6208080;28;21258;-66
2023/10/10 02:32:48;;;;;;;9.00;5.33;;;;;;;;;;6204987;28;20195;-66
2023/10/10 02:35:57;;;;;;;9.17;4.70;;;;;;;;;;6204989;28;20199;-66
2023/10/10 02:42:33;;;;;;;8.23;4.67;;;;;;;;;;6204247;28;20228;-66
2023/10/10 02:45:35;;;;;;;8.03;4.80;;;;;;;;;;6217567;28;20191;-66
2023/10/10 02:48:42;;;;;;;8.50;4.63;;;;;;;;;;6210385;28;20261;-66
2023/10/10 02:51:43;;;;;;;7.20;4.40;;;;;;;;;;6214318;28;20192;-66
2023/10/10 02:54:53;;;;;;;8.27;3.70;;;;;;;;;;6227462;28;20265;-66
2023/10/10 02:57:54;;;;;;;7.87;3.57;;;;;;;;;;6212341;28;20198;-66
2023/10/10 03:00:57;;;;;;;11.10;4.30;;;;;;;;;;6212265;28;20198;-66
2023/10/10 03:03:58;;;;;;;5.30;3.50;;;;;;;;;;6219459;28;20269;-66
2023/10/10 03:07:05;;;;;;;7.73;4.20;;;;;;;;;;6209516;28;20192;-66
2023/10/10 03:10:22;;;;;;;6.53;3.47;;;;;;;;;;6209287;28;20200;-66
2023/10/10 03:13:47;;;;;;;6.47;4.03;;;;;;;;;;6224624;28;20203;-66
2023/10/10 03:21:12;;;;;;;9.83;3.70;;;;;;;;;;6145476;28;20257;-66
2023/10/10 03:23:54;;;;;;;8.47;4.40;;;;;;;;;;6209915;28;20254;-67
2023/10/10 03:27:01;;;;;;;7.30;4.53;;;;;;;;;;6214273;28;20208;-66
2023/10/10 03:30:16;;;;;;;10.73;4.47;;;;;;;;;;6219835;28;20193;-66
2023/10/10 03:33:35;;;;;;;8.33;3.90;;;;;;;;;;6214103;28;20195;-66
2023/10/10 03:36:48;;;;;;;5.30;3.40;;;;;;;;;;6217033;28;20191;-66
2023/10/10 03:39:57;;;;;;;6.50;3.80;;;;;;;;;;6226409;28;20277;-66
2023/10/10 05:23:30;;;;;;;8.80;4.70;;;;;;;;;;6220614;28;20243;-66
2023/10/10 05:26:31;;;;;;;8.20;4.27;;;;;;;;;;6214748;28;20186;-67
2023/10/10 05:29:33;;;;;;;9.47;4.80;;;;;;;;;;6229723;28;20289;-66
2023/10/10 05:32:34;;;;;;;6.77;4.13;;;;;;;;;;6193356;28;20210;-66
2023/10/10 05:35:39;;;;;;;9.60;5.13;;;;;;;;;;6206466;28;20203;-67
2023/10/10 05:38:40;;;;;;;10.97;5.47;;;;;;;;;;6205799;28;20202;-66
2023/10/10 05:41:41;;;;;;;7.80;4.17;;;;;;;;;;6207995;28;20194;-66
2023/10/10 05:44:44;;;;;;;10.13;5.20;;;;;;;;;;6207077;28;20195;-66
2023/10/10 05:47:45;;;;;;;6.07;3.87;;;;;;;;;;6213039;28;20205;-66
2023/10/10 05:50:48;;;;;;;6.27;3.97;;;;;;;;;;6231860;28;20209;-66
2023/10/10 05:53:49;;;;;;;6.10;4.57;;;;;;;;;;6217508;28;20199;-67
2023/10/10 05:56:50;;;;;;;10.43;4.77;;;;;;;;;;6208635;28;20225;-66
2023/10/10 05:59:51;;;;;;;9.03;4.83;;;;;;;;;;6205656;28;20219;-66
2023/10/10 06:02:53;;;;;;;7.73;4.30;;;;;;;;;;6229218;28;20210;-66
2023/10/10 06:05:56;;;;;;;11.13;4.70;;;;;;;;;;6211021;28;20193;-67
2023/10/10 06:09:00;;;;;;;8.13;4.17;;;;;;;;;;6211580;28;20192;-67
2023/10/10 06:12:04;;;;;;;6.93;4.40;;;;;;;;;;6221738;28;20210;-67
2023/10/10 06:15:06;;;;;;;9.80;4.70;;;;;;;;;;6195903;28;20286;-67
2023/10/10 06:18:18;;;;;;;6.33;4.33;;;;;;;;;;6206999;28;20200;-67
2023/10/10 06:21:19;;;;;;;8.07;4.80;;;;;;;;;;6224646;28;20192;-67
2023/10/10 06:24:20;;;;;;;7.50;4.33;;;;;;;;;;6208417;28;20278;-66
2023/10/10 06:27:21;;;;;;;8.87;4.10;;;;;;;;;;6208559;28;20187;-67
2023/10/10 06:30:24;;;;;;;9.20;4.27;;;;;;;;;;6208329;28;20201;-66
2023/10/10 06:33:28;;;;;;;9.33;4.23;;;;;;;;;;6223062;28;20221;-67
2023/10/10 06:36:32;;;;;;;8.17;4.50;;;;;;;;;;6214077;28;20249;-67
2023/10/10 06:39:34;;;;;;;7.60;4.43;;;;;;;;;;6211364;28;20204;-67
2023/10/10 06:42:35;;;;;;;7.40;3.90;;;;;;;;;;6212892;28;20215;-67
2023/10/10 06:45:41;;;;;;;6.40;4.30;;;;;;;;;;6212421;28;20197;-67
2023/10/10 06:48:42;;;;;;;6.27;4.23;;;;;;;;;;6221680;28;20200;-67
2023/10/10 06:51:43;;;;;;;5.33;4.00;;;;;;;;;;6217820;28;20229;-67
2023/10/10 06:54:45;;;;;;;8.97;4.73;;;;;;;;;;6233097;28;20237;-67
2023/10/10 06:57:57;;;;;;;9.93;4.70;;;;;;;;;;6209595;28;20207;-66
2023/10/10 07:01:04;;;;;;;11.80;4.80;;;;;;;;;;6207798;28;20189;-66
2023/10/10 07:04:11;;;;;;;7.43;4.93;;;;;;;;;;6208989;28;20223;-66
2023/10/10 07:07:13;;;;;;;8.93;5.77;;;;;;;;;;6213632;28;20222;-67
2023/10/10 07:10:25;;;;;;;9.47;5.27;;;;;;;;;;6218805;28;20195;-66
2023/10/10 07:13:35;;;;;;;9.53;5.53;;;;;;;;;;6214236;28;20215;-67
2023/10/10 07:16:42;;;;;;;9.07;5.00;;;;;;;;;;6217845;28;20226;-67
2023/10/10 07:23:02;;;;;;;14.70;5.83;;;;;;;;;;6230068;28;20221;-67
2023/10/10 07:26:23;;;;;;;9.23;5.37;;;;;;;;;;6208025;28;20200;-67
2023/10/10 07:29:27;;;;;;;7.20;5.20;;;;;;;;;;6213983;28;20275;-67
2023/10/10 07:32:29;;;;;;;11.87;5.93;;;;;;;;;;6216180;28;20200;-67
2023/10/10 07:35:36;;;;;;;7.63;5.10;;;;;;;;;;6209550;28;20219;-66
2023/10/10 07:38:37;;;;;;;7.20;5.27;;;;;;;;;;6219146;28;20196;-67
2023/10/10 07:41:38;;;;;;;9.70;5.33;;;;;;;;;;6210983;28;20200;-66
2023/10/10 07:44:44;;;;;;;6.87;5.50;;;;;;;;;;6214297;28;20210;-67
2023/10/10 07:51:07;;;;;;;6.47;4.57;;;;;;;;;;6225690;28;20238;-67
2023/10/10 07:54:12;;;;;;;7.53;4.57;;;;;;;;;;6212465;28;20242;-67
2023/10/10 07:57:22;;;;;;;6.60;4.70;;;;;;;;;;6199678;28;20208;-67
2023/10/10 08:00:27;;;;;;;8.43;5.63;;;;;;;;;;6225649;28;20187;-67
2023/10/10 08:03:31;;;;;;;8.87;4.90;;;;;;;;;;6221760;28;20211;-67
2023/10/10 08:06:33;;;;;;;7.70;4.33;;;;;;;;;;6224278;28;20199;-67
2023/10/10 08:09:37;;;;;;;8.20;4.70;;;;;;;;;;6208709;28;20262;-67
2023/10/10 08:12:39;;;;;;;7.70;4.00;;;;;;;;;;6198489;28;20194;-67
2023/10/10 08:15:51;;;;;;;6.60;4.50;;;;;;;;;;6214387;28;20194;-67
2023/10/10 08:18:55;;;;;;;9.57;5.50;;;;;;;;;;6222194;28;20199;-67
2023/10/10 08:21:56;;;;;;;5.87;4.40;;;;;;;;;;6210945;28;20215;-67
2023/10/10 08:24:57;;;;;;;5.80;4.67;;;;;;;;;;6203484;28;20277;-67
2023/10/10 08:27:59;;;;;;;10.80;5.67;;;;;;;;;;6205659;28;20191;-68
2023/10/10 08:31:00;;;;;;;8.87;4.87;;;;;;;;;;6228996;28;20190;-67
2023/10/10 08:34:01;;;;;;;10.53;5.33;;;;;;;;;;6204995;28;20248;-68
2023/10/10 08:37:05;;;;;;;8.93;5.13;;;;;;;;;;6194138;28;20210;-68
2023/10/10 08:40:17;;;;;;;9.23;4.67;;;;;;;;;;6222629;28;20195;-68
2023/10/10 08:43:18;;;;;;;9.43;4.97;;;;;;;;;;6208498;28;20215;-67
2023/10/10 08:46:21;;;;;;;10.87;5.27;;;;;;;;;;6214151;28;20202;-67
2023/10/10 08:49:23;;;;;;;8.17;4.90;;;;;;;;;;6221609;28;20192;-67
2023/10/10 08:52:24;;;;;;;6.70;4.30;;;;;;;;;;6228561;28;20191;-67
2023/10/10 08:55:28;;;;;;;8.43;4.27;;;;;;;;;;6231840;28;20209;-68
2023/10/10 08:58:31;;;;;;;7.27;5.03;;;;;;;;;;6210591;28;20298;-67
2023/10/10 09:01:35;;;;;;;8.80;4.67;;;;;;;;;;6201852;28;20224;-67
2023/10/10 09:04:36;;;;;;;7.57;4.43;;;;;;;;;;6197464;28;20226;-67
2023/10/10 09:07:42;;;;;;;7.93;4.10;;;;;;;;;;6208602;28;20202;-67
2023/10/10 09:10:46;;;;;;;10.73;4.17;;;;;;;;;;6213876;28;20198;-67
2023/10/10 09:13:48;;;;;;;7.90;4.03;;;;;;;;;;6224341;28;20194;-68
2023/10/10 09:16:49;;;;;;;9.73;4.40;;;;;;;;;;6231634;28;20187;-66
2023/10/10 09:19:51;;;;;;;6.60;3.93;;;;;;;;;;6213808;28;20199;-66
2023/10/10 09:22:52;;;;;;;9.10;3.93;;;;;;;;;;6210996;28;20309;-66
2023/10/10 09:26:12;;;;;;;7.53;4.33;;;;;;;;;;6224907;28;20191;-66
2023/10/10 09:29:29;;;;;;;7.10;3.67;;;;;;;;;;6202260;28;20191;-67
2023/10/10 09:32:42;;;;;;;5.93;3.30;;;;;;;;;;6230414;28;20248;-66
2023/10/10 09:35:49;;;;;;;6.10;3.40;;;;;;;;;;6217868;28;20286;-67
2023/10/10 09:39:35;;;;;;;4.97;3.87;;;;;;;;;;6212212;28;20191;-67
2023/10/10 09:46:10;;;;;;;10.10;4.60;;;;;;;;;;6244874;28;20192;-68
2023/10/10 09:49:29;;;;;;;6.33;3.83;;;;;;;;;;6218238;28;20282;-66
2023/10/10 09:55:53;;;;;;;8.47;3.47;;;;;;;;;;6235600;28;20198;-66
2023/10/10 09:58:54;;;;;;;8.97;3.67;;;;;;;;;;6217881;28;20207;-66
2023/10/10 10:02:04;;;;;;;9.60;4.30;;;;;;;;;;6210455;28;20222;-66
2023/10/10 10:05:13;;;;;;;9.13;4.20;;;;;;;;;;6228625;28;20189;-66
2023/10/10 10:08:21;;;;;;;6.03;4.13;;;;;;;;;;6212667;28;20199;-66
2023/10/10 10:11:33;;;;;;;9.70;4.23;;;;;;;;;;6217526;28;20209;-66
2023/10/10 10:14:54;;;;;;;8.87;3.63;;;;;;;;;;6234401;28;20248;-66
2023/10/10 10:17:56;;;;;;;7.80;4.40;;;;;;;;;;6235126;28;20195;-67
2023/10/10 10:21:05;;;;;;;6.03;3.90;;;;;;;;;;6227482;28;20192;-67
2023/10/10 10:24:17;;;;;;;5.90;3.80;;;;;;;;;;6221208;28;20289;-67
2023/10/10 10:27:34;;;;;;;5.47;3.47;;;;;;;;;;6234205;28;20195;-67
2023/10/10 10:30:50;;;;;;;8.40;4.23;;;;;;;;;;6229830;28;20184;-67
2023/10/10 10:34:08;;;;;;;9.80;4.40;;;;;;;;;;6229600;28;20187;-67
2023/10/10 10:37:23;;;;;;;6.90;4.27;;;;;;;;;;6219489;28;20239;-67
2023/10/10 10:40:25;;;;;;;7.67;4.27;;;;;;;;;;6221284;28;20283;-67
2023/10/10 10:43:38;;;;;;;8.17;3.87;;;19.70;65.80;;;;;;6229200;28;20215;-67
2023/10/10 10:46:47;;;;;;;5.77;3.60;;;19.80;64.30;;;;;;6193357;28;20203;-67
2023/10/10 10:49:54;;;;;;;7.30;3.63;;;;;;;;;;6215372;28;20188;-67
2023/10/10 10:52:59;;;;;;;10.57;4.30;;;;;;;;;;6210898;28;20191;-67
2023/10/10 10:59:21;;;;;;;7.00;3.83;;;;;;;;;;6235623;28;20184;-67
2023/10/10 11:02:29;;;;;;;7.13;3.57;;;;;;;;;;6199472;28;20215;-67
2023/10/10 11:05:30;;;;;;;8.30;4.00;;;;;;;;;;6220595;28;20195;-67
2023/10/10 11:11:57;;;;;;;8.63;3.83;;;;;;;;;;6218043;28;20206;-67
2023/10/10 11:15:04;;;;;;;7.67;4.00;;;;;;;;;;6210123;28;20188;-67
2023/10/10 11:18:09;;;;;;;7.40;3.90;;;;;;;;;;6231557;28;20291;-66
2023/10/10 11:21:11;;;;;;;7.40;3.70;;;;;;;;;;6240351;28;20273;-67
2023/10/10 11:24:13;;;;;;;9.60;4.00;;;;;;;;;;6218612;28;20289;-67
2023/10/10 11:27:14;;;;;;;5.77;3.90;;;;;;;;;;6204290;28;20194;-67
2023/10/10 11:30:24;;;;;;;8.47;3.53;;;;;;;;;;6222888;28;20190;-67
2023/10/10 11:33:46;;;;;;;6.60;4.30;;;;;;;;;;6207126;28;20226;-67
2023/10/10 11:36:51;;;;;;;6.57;3.50;;;;;;;;;;6217267;28;20203;-67
2023/10/10 11:39:57;;;;;;;7.73;3.90;;;;;;;;;;6208535;28;20280;-66
2023/10/10 11:43:05;;;;;;;6.50;4.60;;;;;;;;;;6207584;28;20214;-67
2023/10/10 11:46:07;;;;;;;8.70;3.97;;;;;;;;;;6216503;28;20179;-67
2023/10/10 11:49:15;;;;;;;6.00;3.80;;;;;;;;;;6216347;28;20188;-66
2023/10/10 11:52:19;;;;;;;8.27;3.87;;;;;;;;;;6216426;28;20199;-66
2023/10/10 11:55:26;;;;;;;5.97;3.50;;;;;;;;;;6217715;28;20209;-66
2023/10/10 11:58:36;;;;;;;8.37;4.33;;;;;;;;;;6218147;28;20190;-66
2023/10/10 12:01:51;;;;;;;6.17;4.40;;;;;;;;;;6206305;28;20194;-66
2023/10/10 12:04:52;;;;;;;6.37;3.33;;;;;;;;;;6214717;28;20188;-66
2023/10/10 12:07:53;;;;;;;5.93;3.70;;;;;;;;;;6206687;28;20186;-66
2023/10/10 12:11:12;;;;;;;10.03;3.80;;;;;;;;;;6219504;28;20192;-66
2023/10/10 12:14:19;;;;;;;5.67;3.70;;;;;;;;;;6226070;28;20192;-66
2023/10/10 12:17:21;;;;;;;8.17;3.70;;;;;;;;;;6207965;28;20202;-67
2023/10/10 12:20:22;;;;;;;6.80;4.33;;;;;;;;;;6202449;28;20292;-67
2023/10/10 12:23:23;;;;;;;7.13;3.97;;;;;;;;;;6200770;28;20245;-67
2023/10/10 12:26:24;;;;;;;8.37;4.10;;;;;;;;;;6212367;28;20198;-67
2023/10/10 12:29:27;;;;;;;5.30;3.63;;;;;;;;;;6211168;28;20206;-67
2023/10/10 12:32:33;;;;;;;4.87;3.90;;;;;;;;;;6208217;28;20203;-67
2023/10/10 12:35:35;;;;;;;6.10;3.70;;;;;;;;;;6211224;28;20207;-67
2023/10/10 12:38:40;;;;;;;8.47;4.40;;;;;;;;;;6212964;28;20194;-67
2023/10/10 12:41:47;;;;;;;6.27;4.30;;;;;;;;;;6231817;28;20183;-67
2023/10/10 12:44:48;;;;;;;10.40;5.10;;;;;;;;;;6231438;28;20198;-68
2023/10/10 12:47:49;;;;;;;9.23;4.87;;;;;;;;;;6205426;28;20201;-67
2023/10/10 12:50:51;;;;;;;10.63;3.73;;;;;;;;;;6205313;28;20225;-67
2023/10/10 12:54:05;;;;;;;10.37;4.73;;;;;;;;;;6210866;28;20238;-67
2023/10/10 12:57:13;;;;;;;7.70;3.90;;;;;;;;;;6212320;28;20207;-67
2023/10/10 13:00:33;;;;;;;6.97;4.83;;;;;;;;;;6208906;28;20199;-67
2023/10/10 13:03:34;;;;;;;6.97;4.50;;;;;;;;;;6217929;28;20287;-67
2023/10/10 13:06:39;;;;;;;11.80;5.00;;;;;;;;;;6205439;28;20192;-68
2023/10/10 13:09:43;;;;;;;10.57;4.97;;;;;;;;;;6215657;28;20282;-68
2023/10/10 13:12:51;;;;;;;7.33;4.53;;;;;;;;;;6230288;28;20236;-67
2023/10/10 13:16:07;;;;;;;8.47;4.53;;;;;;;;;;6215143;28;20290;-68
2023/10/10 13:19:11;;;;;;;7.93;4.43;;;;;;;;;;6217435;28;20205;-68
2023/10/10 13:22:20;;;;;;;7.30;3.80;;;;;;;;;;6209330;28;20226;-68
2023/10/10 13:25:21;;;;;;;6.47;3.60;;;;;;;;;;6228891;28;20237;-67
2023/10/10 13:28:23;;;;;;;9.83;4.90;;;;;;;;;;6215999;28;20190;-68
2023/10/10 13:31:24;;;;;;;11.50;5.80;;;;;;;;;;6228177;28;20182;-68
2023/10/10 13:34:25;;;;;;;5.27;3.90;;;;;;;;;;6209692;28;20198;-67
2023/10/10 13:37:26;;;;;;;7.30;4.40;;;;;;;;;;6225174;28;20187;-68
2023/10/10 13:40:27;;;;;;;14.03;7.73;;;;;;;;;;6201566;28;20265;-68
2023/10/10 13:43:28;;;;;;;10.90;5.50;;;;;;;;;;6203437;28;20218;-68
2023/10/10 13:46:37;;;;;;;9.23;5.03;;;;;;;;;;6201572;28;20286;-68
2023/10/10 13:49:44;;;;;;;9.40;4.43;;;;;;;;;;6220362;28;20199;-68
2023/10/10 13:52:45;;;;;;;10.03;4.40;;;;;;;;;;6206736;28;20207;-68
2023/10/10 13:55:46;;;;;;;8.37;4.63;;;;;;;;;;6206491;28;20207;-67
2023/10/10 13:58:47;;;;;;;14.33;5.47;;;;;;;;;;6209563;28;20195;-68
2023/10/10 14:01:52;;;;;;;15.50;7.70;;;;;;;;;;6208012;28;20205;-68
2023/10/10 14:04:53;;;;;;;10.20;6.50;;;;;;;;;;6206969;28;20227;-68
2023/10/10 14:07:54;;;;;;;10.57;4.47;;;;;;;;;;6213515;28;20219;-68
2023/10/10 14:10:59;;;;;;;8.63;4.77;;;;;;;;;;6220233;28;20201;-67
2023/10/10 14:14:00;;;;;;;10.13;4.90;;;;;;;;;;6212848;28;20206;-68
2023/10/10 14:17:01;;;;;;;11.33;5.00;;;;;;;;;;6197519;28;20280;-68
2023/10/10 14:20:19;;;;;;;6.30;4.40;;;;;;;;;;6210950;28;20212;-68
2023/10/10 14:23:22;;;;;;;6.97;4.60;;;;;;;;;;6220434;28;20267;-69
2023/10/10 14:26:27;;;;;;;7.67;3.80;;;;;;;;;;6218772;28;20194;-69
2023/10/10 14:29:40;;;;;;;7.60;4.13;;;;;;;;;;6197742;28;20206;-68
2023/10/10 14:32:41;;;;;;;7.60;4.17;;;;;;;;;;6214343;28;20207;-68
2023/10/10 14:35:43;;;;;;;9.70;4.93;;;;;;;;;;6208987;28;20203;-68
2023/10/10 14:38:45;;;;;;;9.60;4.50;;;;;;;;;;6213897;28;20229;-68
2023/10/10 14:41:46;;;;;;;10.30;3.87;;;;;;;;;;6230914;28;20213;-68
2023/10/10 14:44:47;;;;;;;7.03;4.47;;;;;;;;;;6217567;28;20236;-68
2023/10/10 14:47:51;;;;;;;12.37;5.50;;;;;;;;;;6211032;28;20191;-68
2023/10/10 14:50:52;;;;;;;11.23;4.20;;;;;;;;;;6203692;28;20195;-68
2023/10/10 14:53:53;;;;;;;8.13;4.73;;;;;;;;;;6224284;28;20197;-68
2023/10/10 14:56:54;;;;;;;8.43;4.00;;;;;;;;;;6219912;28;20182;-67
2023/10/10 14:59:55;;;;;;;9.67;4.43;;;;;;;;;;6214314;28;20206;-69
2023/10/10 15:02:56;;;;;;;9.00;4.53;;;;;;;;;;6215821;28;20220;-69
2023/10/10 15:06:06;;;;;;;9.40;5.47;;;19.90;65.90;;;;;;6232569;28;20261;-68
2023/10/10 15:09:08;;;;;;;8.87;4.07;;;22.60;61.00;;;;;;6194526;28;20187;-68
2023/10/10 15:12:08;;;;;;;7.23;3.77;;;23.10;60.00;;;;;;6209603;28;20183;-67
2023/10/10 15:15:09;;;;;;;7.70;4.67;;;;;;;;;;6198337;28;20198;-67
2023/10/10 15:18:10;;;;;;;9.37;4.43;;;;;;;;;;6211726;28;20233;-67
2023/10/10 15:21:12;;;;;;;11.93;6.40;;;;;;;;;;6203232;28;20193;-67
2023/10/10 15:24:14;;;;;;;9.67;5.00;;;;;;;;;;6220201;28;20235;-67
2023/10/10 15:27:17;;;;;;;10.67;4.63;;;;;;;;;;6210359;28;20199;-68
2023/10/10 15:30:18;;;;;;;8.53;4.40;;;;;;;;;;6200884;28;20268;-68
2023/10/10 15:33:21;;;;;;;7.10;4.23;;;;;;;;;;6212415;28;20192;-68
2023/10/10 15:36:22;;;;;;;7.23;4.10;;;;;;;;;;6221559;28;20223;-68
2023/10/10 15:39:23;;;;;;;14.40;4.30;;;;;;;;;;6195585;28;20224;-68
2023/10/10 15:42:25;;;;;;;8.87;5.23;;;;;;;;;;6199186;28;20227;-68
2023/10/10 15:45:28;;;;;;;10.57;4.90;;;;;;;;;;6210351;28;20210;-68
2023/10/10 15:48:30;;;;;;;8.10;4.77;;;;;;;;;;6203204;28;20190;-68
2023/10/10 15:51:35;;;;;;;8.23;4.87;;;;;;;;;;6194093;28;20200;-68
2023/10/10 15:54:36;;;;;;;7.77;4.57;;;;;;;;;;6210221;28;20230;-68
2023/10/10 15:57:37;;;;;;;8.47;4.47;;;;;;;;;;6193098;28;20270;-68
2023/10/10 16:00:39;;;;;;;6.80;4.03;;;;;;;;;;6206608;28;20206;-68
2023/10/10 16:03:47;;;;;;;8.07;4.20;;;;;;;;;;6209954;28;20242;-68
2023/10/10 16:06:50;;;;;;;8.53;4.43;;;;;;;;;;6201995;28;20192;-68
2023/10/10 16:09:52;;;;;;;9.10;4.67;;;;;;;;;;6202128;28;20243;-68
2023/10/10 16:12:53;;;;;;;5.97;4.30;;;;;;;;;;6201342;28;20245;-68
2023/10/10 16:15:57;;;;;;;7.00;4.60;;;;;;;;;;6192627;28;20298;-68
2023/10/10 16:18:58;;;;;;;6.97;4.40;;;;;;;;;;6208327;28;20286;-68
2023/10/10 16:22:02;;;;;;;11.67;4.60;;;;;;;;;;6191837;28;20199;-68
2023/10/10 16:25:03;;;;;;;7.10;4.50;;;;;;;;;;6190479;28;20239;-68
2023/10/10 16:28:05;;;;;;;8.70;4.37;;;;;;;;;;6202081;28;20198;-68
2023/10/10 16:31:10;;;;;;;9.20;4.67;;;;;;;;;;6200016;28;20238;-68
2023/10/10 16:34:12;;;;;;;7.97;4.33;;;;;;;;;;6227384;28;20199;-67
2023/10/10 16:37:16;;;;;;;8.90;4.37;;;;;;;;;;6202399;28;20286;-68
2023/10/10 16:40:17;;;;;;;8.20;4.63;;;;;;;;;;6198842;28;20279;-67
2023/10/10 16:43:24;;;;;;;13.00;4.80;;;;;;;;;;6195932;28;20211;-68
2023/10/10 16:46:27;;;;;;;8.30;4.17;;;;;;;;;;6213597;28;20188;-68
2023/10/10 16:49:31;;;;;;;13.13;5.60;;;;;;;;;;6220424;28;20180;-69
2023/10/10 16:52:35;;;;;;;10.57;4.97;;;;;;;;;;6226308;28;20238;-68
2023/10/10 16:55:37;;;;;;;7.00;4.60;;;;;;;;;;6207332;28;20206;-67
2023/10/10 16:58:38;;;;;;;11.07;5.20;;;;;;;;;;6192964;28;20219;-68
2023/10/10 17:01:39;;;;;;;9.00;5.20;;;;;;;;;;6206257;28;20200;-68
2023/10/10 17:04:43;;;;;;;8.63;4.27;;;;;;;;;;6203698;28;20246;-67
2023/10/10 17:07:47;;;;;;;9.70;4.93;;;;;;;;;;6207792;28;20221;-69
2023/10/10 17:10:50;;;;;;;11.13;5.13;;;;;;;;;;6209773;28;20184;-67
2023/10/10 17:13:53;;;;;;;9.27;5.03;;;;;;;;;;6195927;28;20263;-69
2023/10/10 17:16:54;;;;;;;10.70;5.77;;;;;;;;;;6202173;28;20192;-69
2023/10/10 17:19:55;;;;;;;8.60;5.07;;;;;;;;;;6199801;28;20199;-68
2023/10/10 17:22:59;;;;;;;8.07;5.50;;;;;;;;;;6206327;28;20215;-68
2023/10/10 17:26:00;;;;;;;12.27;6.33;;;;;;;;;;6209794;28;20203;-67
2023/10/10 17:29:02;;;;;;;8.20;5.73;;;;;;;;;;6231422;28;20187;-68
2023/10/10 17:32:05;;;;;;;9.43;5.70;;;;;;;;;;6204699;28;20290;-67
2023/10/10 17:35:08;;;;;;;8.83;5.10;;;;;;;;;;6196987;28;20226;-67
2023/10/10 17:38:09;;;;;;;9.13;5.83;;;;;;;;;;6207074;28;20191;-67
2023/10/10 17:41:13;;;;;;;9.60;6.13;;;;;;;;;;6223261;28;20200;-67
2023/10/10 17:44:16;;;;;;;13.70;7.13;;;;;;;;;;6212229;28;20218;-66
2023/10/10 17:47:18;;;;;;;12.03;5.97;;;;;;;;;;6228727;28;20196;-67
2023/10/10 17:50:21;;;;;;;13.20;5.63;;;;;;;;;;6208182;28;20203;-67
2023/10/10 17:53:23;;;;;;;13.10;5.17;;;;;;;;;;6207229;28;20187;-66
2023/10/10 17:56:24;;;;;;;12.00;5.43;;;;;;;;;;6222515;28;20195;-66
2023/10/10 17:59:25;;;;;;;10.43;5.70;;;;;;;;;;6223868;28;20183;-67
2023/10/10 18:02:26;;;;;;;11.97;5.10;;;;;;;;;;6214812;28;20218;-66
2023/10/10 18:05:27;;;;;;;8.33;5.00;;;;;;;;;;6226713;28;20186;-66
2023/10/10 18:08:29;;;;;;;9.83;5.63;;;;;;;;;;6213976;28;20191;-66
2023/10/10 18:11:33;;;;;;;12.33;5.37;;;;;;;;;;6201471;28;20237;-67
2023/10/10 18:14:34;;;;;;;11.57;7.07;;;22.30;62.10;;;;;;6222622;28;20305;-66
2023/10/10 18:17:34;;;;;;;12.60;7.87;;;15.50;85.10;;;;;;6193522;28;20190;-66
2023/10/10 18:20:43;;;;;;;9.73;6.27;;;15.50;85.20;;;;;;6200806;28;20218;-64
2023/10/10 18:23:43;;;;;;;8.33;4.93;;;15.40;85.60;;;;;;6229708;28;20235;-65
2023/10/10 18:26:44;;;;;;;7.23;5.80;;;15.40;85.70;;;;;;6201806;28;20186;-66
2023/10/10 18:29:45;;;;;;;12.23;5.43;;;15.40;85.70;;;;;;6206410;28;20190;-65
2023/10/10 18:32:51;;;;;;;12.07;5.97;;;15.30;85.30;;;;;;6196700;28;20271;-66
2023/10/10 18:35:52;;;;;;;10.23;5.50;;;;;;;;;;6207639;28;20211;-66
2023/10/10 18:38:56;;;;;;;7.00;5.20;;;;;;;;;;6210738;28;20199;-66
2023/10/10 18:41:57;;;;;;;9.83;5.07;;;;;;;;;;6215648;28;20294;-66
2023/10/10 18:44:58;;;;;;;11.90;6.93;;;;;;;;;;6247281;28;20190;-66
2023/10/10 18:47:59;;;;;;;16.30;6.80;;;;;;;;;;6218719;28;20213;-66
2023/10/10 18:51:02;;;;;;;10.10;6.70;;;;;;;;;;6212609;28;20199;-66
2023/10/10 18:54:08;;;;;;;11.23;6.53;;;;;;;;;;6216837;28;20190;-66
2023/10/10 18:57:09;;;;;;;10.17;6.17;;;;;;;;;;6230246;28;20188;-66
2023/10/10 19:00:14;;;;;;;11.40;6.97;;;;;;;;;;6224067;28;20187;-67
2023/10/10 19:03:18;;;;;;;10.67;6.43;;;;;;;;;;6229782;28;20210;-67
2023/10/10 19:06:19;;;;;;;12.30;6.73;;;;;;;;;;6216467;28;20193;-67
2023/10/10 19:09:23;;;;;;;8.30;5.50;;;;;;;;;;6216937;28;20277;-67
2023/10/10 19:12:24;;;;;;;8.20;5.23;;;;;;;;;;6214654;28;20200;-67
2023/10/10 19:15:26;;;;;;;12.43;6.20;;;;;;;;;;6232134;28;20192;-67
2023/10/10 19:18:27;;;;;;;8.53;5.27;;;;;;;;;;6233710;28;20208;-67
2023/10/10 19:21:30;;;;;;;8.67;5.10;;;;;;;;;;6218338;28;20225;-67
2023/10/10 19:24:34;;;;;;;12.10;6.43;;;;;;;;;;6228805;28;20274;-67
2023/10/10 19:27:35;;;;;;;9.67;6.00;;;;;;;;;;6234882;28;20188;-67
2023/10/10 19:30:39;;;;;;;7.70;5.33;;;;;;;;;;6229045;28;20293;-67
2023/10/10 19:33:40;;;;;;;8.70;5.40;;;;;;;;;;6229235;28;20195;-67
2023/10/10 19:36:42;;;;;;;11.00;5.77;;;;;;;;;;6217352;28;20195;-67
2023/10/10 19:39:43;;;;;;;13.10;6.47;;;;;;;;;;6216433;28;20335;-68
2023/10/10 19:42:51;;;;;;;10.27;5.93;;;;;;;;;;6215812;28;20217;-67
2023/10/10 19:45:52;;;;;;;9.43;5.93;;;;;;;;;;6220498;28;20183;-68
2023/10/10 19:48:53;;;;;;;6.47;5.50;;;;;;;;;;6215309;28;20218;-67
2023/10/10 19:51:56;;;;;;;9.67;5.43;;;;;;;;;;6211017;28;20205;-67
2023/10/10 19:54:57;;;;;;;7.80;5.40;;;;;;;;;;6214326;28;20207;-68
2023/10/10 19:57:58;;;;;;;9.73;5.27;;;;;;;;;;6216212;28;20215;-67
2023/10/10 20:01:03;;;;;;;11.47;5.90;;;;;;;;;;6207597;28;20222;-67
2023/10/10 20:04:05;;;;;;;13.07;6.40;;;;;;;;;;6231743;28;20263;-68
2023/10/10 20:07:07;;;;;;;10.37;5.33;;;;;;;;;;6203680;28;20286;-68
2023/10/10 20:10:15;;;;;;;10.60;5.60;;;;;;;;;;6205332;28;20204;-68
2023/10/10 20:13:20;;;;;;;6.90;5.80;;;;;;;;;;6219770;28;20186;-68
2023/10/10 20:16:25;;;;;;;8.93;5.17;;;;;;;;;;6230256;28;20225;-68
2023/10/10 20:19:28;;;;;;;12.70;5.70;;;;;;;;;;6230062;28;20194;-68
2023/10/10 20:22:32;;;;;;;9.80;6.03;;;;;;;;;;6207654;28;20220;-69
2023/10/10 20:25:40;;;;;;;9.47;5.80;;;;;;;;;;6225830;28;20241;-67
2023/10/10 20:28:44;;;;;;;10.87;5.40;;;;;;;;;;6226499;28;20203;-67